createdAt,value
2022-09-20T00:01:26.203Z,73.35
2022-09-20T00:03:57.804Z,73.67
2022-09-20T00:06:29.822Z,73.38
2022-09-20T00:08:57.132Z,73.04
2022-09-20T00:11:26.478Z,73.40
2022-09-20T00:13:56.135Z,73.71
2022-09-20T00:16:35.570Z,73.94
2022-09-20T00:19:04.044Z,73.79
2022-09-20T00:21:32.750Z,73.31
2022-09-20T00:23:59.488Z,73.28
2022-09-20T00:26:27.401Z,73.83
2022-09-20T00:28:54.220Z,73.59
2022-09-20T00:31:20.724Z,73.62
2022-09-20T00:34:05.886Z,74.36
2022-09-20T00:36:32.606Z,74.00
2022-09-20T00:39:00.926Z,74.14
2022-09-20T00:41:28.837Z,73.86
2022-09-20T00:43:56.117Z,74.07
2022-09-20T00:46:33.683Z,74.96
2022-09-20T00:49:13.472Z,74.66
2022-09-20T00:51:43.111Z,74.88
2022-09-20T00:54:14.792Z,74.27
2022-09-20T00:56:44.109Z,74.98
2022-09-20T00:59:19.728Z,74.97
2022-09-20T01:01:57.721Z,74.58
2022-09-20T01:04:27.469Z,74.53
2022-09-20T01:06:57.757Z,74.58
2022-09-20T01:09:24.275Z,74.92
2022-09-20T01:11:55.311Z,74.66
2022-09-20T01:14:23.710Z,75.05
2022-09-20T01:16:53.807Z,75.29
2022-09-20T01:19:35.383Z,75.34
2022-09-20T01:22:08.548Z,75.33
2022-09-20T01:24:42.943Z,75.63
2022-09-20T01:27:36.444Z,75.57
2022-09-20T01:30:08.078Z,75.44
2022-09-20T01:32:42.474Z,75.92
2022-09-20T01:35:11.542Z,75.96
2022-09-20T01:37:54.469Z,76.00
2022-09-20T01:40:30.070Z,76.71
2022-09-20T01:43:28.103Z,76.24
2022-09-20T01:45:54.894Z,76.34
2022-09-20T01:48:59.972Z,77.05
2022-09-20T01:51:52.444Z,77.48
2022-09-20T01:54:48.078Z,77.08
2022-09-20T01:57:32.879Z,77.10
2022-09-20T02:00:12.068Z,77.21
2022-09-20T02:02:50.530Z,76.93
2022-09-20T02:05:38.195Z,76.82
2022-09-20T02:08:29.559Z,77.38
2022-09-20T02:10:59.155Z,77.08
2022-09-20T02:13:40.670Z,77.22
2022-09-20T02:16:40.260Z,77.76
2022-09-20T02:19:25.589Z,77.98
2022-09-20T02:22:07.263Z,77.02
2022-09-20T02:24:50.783Z,77.59
2022-09-20T02:27:45.408Z,77.19
2022-09-20T02:30:33.992Z,76.98
2022-09-20T02:33:12.261Z,77.49
2022-09-20T02:35:56.937Z,77.65
2022-09-20T02:38:54.095Z,77.69
2022-09-20T02:41:41.999Z,77.26
2022-09-20T02:44:20.488Z,77.47
2022-09-20T02:47:11.784Z,77.90
2022-09-20T02:50:10.731Z,78.02
2022-09-20T02:52:57.257Z,77.99
2022-09-20T02:55:55.339Z,77.18
2022-09-20T02:58:35.260Z,77.38
2022-09-20T03:01:20.111Z,77.08
2022-09-20T03:04:02.175Z,77.81
2022-09-20T03:06:49.499Z,78.21
2022-09-20T03:09:34.160Z,77.91
2022-09-20T03:12:32.376Z,78.42
2022-09-20T03:15:25.294Z,77.99
2022-09-20T03:17:58.108Z,78.40
2022-09-20T03:20:33.770Z,77.48
2022-09-20T03:23:33.002Z,78.27
2022-09-20T03:26:36.984Z,78.67
2022-09-20T03:29:18.750Z,77.98
2022-09-20T03:32:13.818Z,79.28
2022-09-20T03:35:06.381Z,78.96
2022-09-20T03:37:44.941Z,78.81
2022-09-20T03:40:26.482Z,78.06
2022-09-20T03:42:54.492Z,78.55
2022-09-20T03:45:35.643Z,78.41
2022-09-20T03:48:29.928Z,78.12
2022-09-20T03:51:33.821Z,78.18
2022-09-20T03:54:09.780Z,77.63
2022-09-20T03:56:45.252Z,78.33
2022-09-20T03:59:14.769Z,78.94
2022-09-20T04:01:56.555Z,78.98
2022-09-20T04:04:41.776Z,78.09
2022-09-20T04:07:27.127Z,78.83
2022-09-20T04:10:04.651Z,78.46
2022-09-20T04:12:55.981Z,78.70
2022-09-20T04:15:47.703Z,78.00
2022-09-20T04:18:43.540Z,78.60
2022-09-20T04:21:53.391Z,78.56
2022-09-20T04:24:28.797Z,78.53
2022-09-20T04:27:22.932Z,79.17
2022-09-20T04:29:57.471Z,78.56
2022-09-20T04:32:44.389Z,78.20
2022-09-20T04:35:54.469Z,77.96
2022-09-20T04:38:21.909Z,77.57
2022-09-20T04:41:00.564Z,78.09
2022-09-20T04:44:06.174Z,78.67
2022-09-20T04:46:56.171Z,78.78
2022-09-20T04:50:11.405Z,78.27
2022-09-20T04:53:05.921Z,77.54
2022-09-20T04:55:41.526Z,77.43
2022-09-20T04:58:47.064Z,78.83
2022-09-20T05:01:19.856Z,78.74
2022-09-20T05:04:08.032Z,78.77
2022-09-20T05:06:37.403Z,78.61
2022-09-20T05:09:36.633Z,78.48
2022-09-20T05:12:24.942Z,78.51
2022-09-20T05:15:41.171Z,78.64
2022-09-20T05:18:25.623Z,78.77
2022-09-20T05:21:01.700Z,77.53
2022-09-20T05:23:45.280Z,77.69
2022-09-20T05:26:37.371Z,77.59
2022-09-20T05:29:21.991Z,78.10
2022-09-20T05:32:05.029Z,78.70
2022-09-20T05:34:56.353Z,78.18
2022-09-20T05:37:31.824Z,78.70
2022-09-20T05:40:06.202Z,78.38
2022-09-20T05:42:50.923Z,78.62
2022-09-20T05:45:42.372Z,78.14
2022-09-20T05:48:12.866Z,78.00
2022-09-20T05:50:50.325Z,77.86
2022-09-20T05:54:00.610Z,79.29
2022-09-20T05:56:32.990Z,78.17
2022-09-20T05:59:27.602Z,78.46
2022-09-20T06:02:15.834Z,79.30
2022-09-20T06:05:17.981Z,79.27
2022-09-20T06:08:21.193Z,79.40
2022-09-20T06:11:03.089Z,79.77
2022-09-20T06:13:49.838Z,79.31
2022-09-20T06:16:32.516Z,79.92
2022-09-20T06:19:09.670Z,79.51
2022-09-20T06:21:55.728Z,79.08
2022-09-20T06:24:43.071Z,78.64
2022-09-20T06:27:24.325Z,79.54
2022-09-20T06:29:57.777Z,79.54
2022-09-20T06:32:24.313Z,79.38
2022-09-20T06:34:51.425Z,79.90
2022-09-20T06:37:49.223Z,79.62
2022-09-20T06:40:49.648Z,80.30
2022-09-20T06:43:16.098Z,79.48
2022-09-20T06:45:42.915Z,80.09
2022-09-20T06:48:11.630Z,80.50
2022-09-20T06:50:38.824Z,80.06
2022-09-20T06:53:06.538Z,80.38
2022-09-20T06:55:41.319Z,79.83
2022-09-20T06:58:09.826Z,80.71
2022-09-20T07:00:36.904Z,81.43
2022-09-20T07:03:03.354Z,81.30
2022-09-20T07:05:29.863Z,81.59
2022-09-20T07:07:58.400Z,81.09
2022-09-20T07:10:28.120Z,81.75
2022-09-20T07:13:00.309Z,81.11
2022-09-20T07:15:28.227Z,81.33
2022-09-20T07:17:55.319Z,81.24
2022-09-20T07:20:22.219Z,80.98
2022-09-20T07:22:49.528Z,81.74
2022-09-20T07:25:18.108Z,81.66
2022-09-20T07:27:46.418Z,81.67
2022-09-20T07:30:14.903Z,82.50
2022-09-20T07:32:41.453Z,81.57
2022-09-20T07:35:09.678Z,81.52
2022-09-20T07:37:37.332Z,81.53
2022-09-20T07:40:05.392Z,81.97
2022-09-20T07:42:32.073Z,81.40
2022-09-20T07:44:59.457Z,82.15
2022-09-20T07:47:26.548Z,81.32
2022-09-20T07:49:53.324Z,80.95
2022-09-20T07:52:20.059Z,80.90
2022-09-20T07:54:47.177Z,80.41
2022-09-20T07:57:13.815Z,80.06
2022-09-20T07:59:40.257Z,80.34
2022-09-20T08:02:06.756Z,79.42
2022-09-20T08:04:33.227Z,79.67
2022-09-20T08:07:01.519Z,79.21
2022-09-20T08:09:28.002Z,79.29
2022-09-20T08:11:56.439Z,78.03
2022-09-20T08:14:24.203Z,77.56
2022-09-20T08:16:51.795Z,77.62
2022-09-20T08:19:21.635Z,77.73
2022-09-20T08:21:49.777Z,77.61
2022-09-20T08:24:17.219Z,77.57
2022-09-20T08:26:44.417Z,76.53
2022-09-20T08:29:11.825Z,76.69
2022-09-20T08:31:42.165Z,76.11
2022-09-20T08:34:12.236Z,75.02
2022-09-20T08:36:41.484Z,75.17
2022-09-20T08:42:14.337Z,74.96
2022-09-20T08:44:58.351Z,73.69
2022-09-20T08:47:28.281Z,73.41
2022-09-20T08:49:57.300Z,73.08
2022-09-20T08:52:37.547Z,72.24
2022-09-20T08:55:23.023Z,71.74
2022-09-20T08:57:55.298Z,71.73
2022-09-20T09:00:26.032Z,72.18
2022-09-20T09:02:56.363Z,71.95
2022-09-20T09:05:33.901Z,70.46
2022-09-20T09:08:06.179Z,69.77
2022-09-20T09:10:45.908Z,67.44
2022-09-20T09:13:24.182Z,68.64
2022-09-20T09:16:07.316Z,67.15
2022-09-20T09:18:37.778Z,66.58
2022-09-20T09:21:07.677Z,65.09
2022-09-20T09:24:05.917Z,65.13
2022-09-20T09:26:41.400Z,63.43
2022-09-20T09:29:18.440Z,63.89
2022-09-20T09:31:47.057Z,64.15
2022-09-20T09:34:23.033Z,61.51
2022-09-20T09:36:49.499Z,60.93
2022-09-20T09:39:28.425Z,60.00
2022-09-20T09:41:55.365Z,58.94
2022-09-20T09:44:23.439Z,59.19
2022-09-20T09:46:51.177Z,59.41
2022-09-20T09:49:19.069Z,57.90
2022-09-20T09:52:06.854Z,55.88
2022-09-20T09:54:39.428Z,56.76
2022-09-20T09:57:33.039Z,56.52
2022-09-20T10:00:19.112Z,55.22
2022-09-20T10:03:01.151Z,54.93
2022-09-20T10:05:48.254Z,54.10
2022-09-20T10:08:29.252Z,53.91
2022-09-20T10:11:00.819Z,53.42
2022-09-20T10:13:40.916Z,52.76
2022-09-20T10:16:29.258Z,53.12
2022-09-20T10:19:04.084Z,53.96
2022-09-20T10:21:56.907Z,54.15
2022-09-20T10:24:42.358Z,51.07
2022-09-20T10:27:27.425Z,54.25
2022-09-20T10:30:17.042Z,52.36
2022-09-20T10:32:52.380Z,52.64
2022-09-20T10:35:25.000Z,51.31
2022-09-20T10:38:00.180Z,51.59
2022-09-20T10:40:52.818Z,50.91
2022-09-20T10:43:41.898Z,49.79
2022-09-20T10:46:35.225Z,50.32
2022-09-20T10:49:25.009Z,51.81
2022-09-20T10:52:16.463Z,50.27
2022-09-20T10:55:20.407Z,49.67
2022-09-20T10:57:56.132Z,49.71
2022-09-20T11:00:36.797Z,46.66
2022-09-20T11:03:22.719Z,48.03
2022-09-20T11:06:01.437Z,47.93
2022-09-20T11:08:33.749Z,48.62
2022-09-20T11:11:12.426Z,47.57
2022-09-20T11:14:01.590Z,45.09
2022-09-20T11:16:33.180Z,43.29
2022-09-20T11:19:13.897Z,42.28
2022-09-20T11:21:46.941Z,45.66
2022-09-20T11:24:35.123Z,44.17
2022-09-20T11:27:33.501Z,44.21
2022-09-20T11:30:08.522Z,44.69
2022-09-20T11:32:37.454Z,44.11
2022-09-20T11:35:25.093Z,43.44
2022-09-20T11:38:22.320Z,41.26
2022-09-20T11:41:02.521Z,39.61
2022-09-20T11:43:31.116Z,42.28
2022-09-20T11:46:08.810Z,39.33
2022-09-20T11:48:51.695Z,40.78
2022-09-20T11:51:39.945Z,39.57
2022-09-20T11:54:37.522Z,40.89
2022-09-20T11:57:05.966Z,40.09
2022-09-20T11:59:37.419Z,39.86
2022-09-20T12:02:17.198Z,39.88
2022-09-20T12:04:49.503Z,41.18
2022-09-20T12:07:29.763Z,41.89
2022-09-20T12:10:02.841Z,40.97
2022-09-20T12:12:41.939Z,40.86
2022-09-20T12:15:29.456Z,41.83
2022-09-20T12:17:58.868Z,41.78
2022-09-20T12:20:34.758Z,42.92
2022-09-20T12:23:38.498Z,43.52
2022-09-20T12:26:21.564Z,41.62
2022-09-20T12:28:52.472Z,40.89
2022-09-20T12:31:19.155Z,42.70
2022-09-20T12:34:24.428Z,42.51
2022-09-20T12:36:52.137Z,42.55
2022-09-20T12:39:24.198Z,42.20
2022-09-20T12:41:56.089Z,42.18
2022-09-20T12:44:34.953Z,42.24
2022-09-20T12:47:10.477Z,42.57
2022-09-20T12:50:04.767Z,41.75
2022-09-20T12:52:58.389Z,43.08
2022-09-20T12:55:38.467Z,41.85
2022-09-20T12:58:17.125Z,42.24
2022-09-20T13:00:57.325Z,42.95
2022-09-20T13:03:24.000Z,42.63
2022-09-20T13:06:12.450Z,42.60
2022-09-20T13:08:42.747Z,42.43
2022-09-20T13:11:18.406Z,42.24
2022-09-20T13:14:11.832Z,41.88
2022-09-20T13:17:13.547Z,42.85
2022-09-20T13:19:46.604Z,42.00
2022-09-20T13:22:25.610Z,42.62
2022-09-20T13:25:02.659Z,41.22
2022-09-20T13:27:34.548Z,41.32
2022-09-20T13:30:19.890Z,40.72
2022-09-20T13:32:47.605Z,41.08
2022-09-20T13:35:23.490Z,41.37
2022-09-20T13:37:59.088Z,40.45
2022-09-20T13:40:34.118Z,40.01
2022-09-20T13:43:23.155Z,39.97
2022-09-20T13:45:56.378Z,39.89
2022-09-20T13:48:28.118Z,38.95
2022-09-20T13:50:55.997Z,38.67
2022-09-20T13:53:40.483Z,39.43
2022-09-20T13:56:16.806Z,38.14
2022-09-20T13:58:43.308Z,39.52
2022-09-20T14:01:27.855Z,36.45
2022-09-20T14:03:57.337Z,39.25
2022-09-20T14:06:29.637Z,40.33
2022-09-20T14:08:58.754Z,40.46
2022-09-20T14:11:33.714Z,39.11
2022-09-20T14:14:03.128Z,39.41
2022-09-20T14:16:32.964Z,39.99
2022-09-20T14:19:00.655Z,40.83
2022-09-20T14:21:28.850Z,39.75
2022-09-20T14:24:04.100Z,39.20
2022-09-20T14:26:33.764Z,39.32
2022-09-20T14:29:28.123Z,38.98
2022-09-20T14:31:55.740Z,39.34
2022-09-20T14:34:22.529Z,39.97
2022-09-20T14:36:50.305Z,39.75
2022-09-20T14:39:21.560Z,38.43
2022-09-20T14:41:48.228Z,38.55
2022-09-20T14:44:33.904Z,38.05
2022-09-20T14:47:13.130Z,38.89
2022-09-20T14:49:43.452Z,38.38
2022-09-20T14:52:45.347Z,39.06
2022-09-20T14:55:14.739Z,39.99
2022-09-20T14:57:42.480Z,40.10
2022-09-20T15:00:13.128Z,39.92
2022-09-20T15:02:43.426Z,40.45
2022-09-20T15:05:23.927Z,40.24
2022-09-20T15:07:51.559Z,39.59
2022-09-20T15:10:18.128Z,40.46
2022-09-20T15:12:44.630Z,39.98
2022-09-20T15:15:17.349Z,39.25
2022-09-20T15:17:45.283Z,39.36
2022-09-20T15:20:23.248Z,39.30
2022-09-20T15:22:50.649Z,39.82
2022-09-20T15:25:21.042Z,40.27
2022-09-20T15:27:50.858Z,40.57
2022-09-20T15:30:19.762Z,40.55
2022-09-20T15:32:46.878Z,40.45
2022-09-20T15:35:14.310Z,40.80
2022-09-20T15:37:40.910Z,40.10
2022-09-20T15:40:08.593Z,40.43
2022-09-20T15:42:38.443Z,41.35
2022-09-20T15:45:10.501Z,41.65
2022-09-20T15:47:38.549Z,41.17
2022-09-20T15:50:08.511Z,42.21
2022-09-20T15:52:36.812Z,42.07
2022-09-20T15:55:04.038Z,41.96
2022-09-20T15:57:31.961Z,40.72
2022-09-20T16:00:01.269Z,41.87
2022-09-20T16:02:28.524Z,41.93
2022-09-20T16:04:55.910Z,42.77
2022-09-20T16:07:26.330Z,41.94
2022-09-20T16:09:54.456Z,41.17
2022-09-20T16:12:22.154Z,42.18
2022-09-20T16:14:49.159Z,41.99
2022-09-20T16:17:16.584Z,41.95
2022-09-20T16:19:48.631Z,42.36
2022-09-20T16:22:15.857Z,41.61
2022-09-20T16:24:42.403Z,41.97
2022-09-20T16:27:09.716Z,41.65
2022-09-20T16:29:36.203Z,41.99
2022-09-20T16:32:03.742Z,42.01
2022-09-20T16:34:35.726Z,42.15
2022-09-20T16:37:11.733Z,41.52
2022-09-20T16:39:38.494Z,42.17
2022-09-20T16:42:06.475Z,42.18
2022-09-20T16:44:38.393Z,41.70
2022-09-20T16:47:10.543Z,41.10
2022-09-20T16:49:37.438Z,41.75
2022-09-20T16:52:04.754Z,41.94
2022-09-20T16:54:32.174Z,42.12
2022-09-20T16:56:59.029Z,42.25
2022-09-20T16:59:25.593Z,42.20
2022-09-20T17:01:52.489Z,43.59
2022-09-20T17:04:20.944Z,42.53
2022-09-20T17:06:48.944Z,43.10
2022-09-20T17:09:16.433Z,43.19
2022-09-20T17:11:49.500Z,43.02
2022-09-20T17:14:18.545Z,43.32
2022-09-20T17:16:47.799Z,43.14
2022-09-20T17:19:16.632Z,43.84
2022-09-20T17:21:46.147Z,43.11
2022-09-20T17:24:14.123Z,43.76
2022-09-20T17:26:44.405Z,44.29
2022-09-20T17:29:13.993Z,44.99
2022-09-20T17:31:43.570Z,45.21
2022-09-20T17:34:12.013Z,45.30
2022-09-20T17:36:41.589Z,45.01
2022-09-20T17:39:12.961Z,45.62
2022-09-20T17:41:41.249Z,46.02
2022-09-20T17:44:11.963Z,45.65
2022-09-20T17:46:43.670Z,46.20
2022-09-20T17:49:14.962Z,47.11
2022-09-20T17:51:49.722Z,46.89
2022-09-20T17:54:16.508Z,47.03
2022-09-20T17:56:46.227Z,47.55
2022-09-20T17:59:15.625Z,47.71
2022-09-20T18:01:43.309Z,47.66
2022-09-20T18:04:10.541Z,48.71
2022-09-20T18:06:42.115Z,48.23
2022-09-20T18:09:10.560Z,48.85
2022-09-20T18:11:39.781Z,48.25
2022-09-20T18:14:08.722Z,49.06
2022-09-20T18:16:35.357Z,49.46
2022-09-20T18:19:01.976Z,49.43
2022-09-20T18:21:30.961Z,49.68
2022-09-20T18:23:57.719Z,51.42
2022-09-20T18:26:27.186Z,51.14
2022-09-20T18:29:19.964Z,51.22
2022-09-20T18:31:48.601Z,52.01
2022-09-20T18:34:31.878Z,52.11
2022-09-20T18:37:01.137Z,53.15
2022-09-20T18:39:32.787Z,53.64
2022-09-20T18:42:00.019Z,54.17
2022-09-20T18:44:28.155Z,54.07
2022-09-20T18:46:55.116Z,55.06
2022-09-20T18:49:22.104Z,55.44
2022-09-20T18:51:49.574Z,55.35
2022-09-20T18:54:16.664Z,56.18
2022-09-20T18:56:45.502Z,56.49
2022-09-20T18:59:24.234Z,56.45
2022-09-20T19:01:50.942Z,56.86
2022-09-20T19:04:40.034Z,57.10
2022-09-20T19:07:28.304Z,57.41
2022-09-20T19:10:13.236Z,57.48
2022-09-20T19:12:42.683Z,57.41
2022-09-20T19:15:36.596Z,58.32
2022-09-20T19:18:13.620Z,58.37
2022-09-20T19:21:05.774Z,58.39
2022-09-20T19:23:47.688Z,59.35
2022-09-20T19:26:24.663Z,59.48
2022-09-20T19:28:54.970Z,60.29
2022-09-20T19:31:30.499Z,60.69
2022-09-20T19:33:59.600Z,59.82
2022-09-20T19:36:31.521Z,60.34
2022-09-20T19:39:32.798Z,61.07
2022-09-20T19:42:08.619Z,60.81
2022-09-20T19:44:55.380Z,60.71
2022-09-20T19:47:47.194Z,60.58
2022-09-20T19:50:26.138Z,61.01
2022-09-20T19:52:52.789Z,61.57
2022-09-20T19:55:20.263Z,61.96
2022-09-20T19:57:47.318Z,62.64
2022-09-20T20:00:20.465Z,62.86
2022-09-20T20:02:48.222Z,62.86
2022-09-20T20:05:17.743Z,63.14
2022-09-20T20:08:19.171Z,64.00
2022-09-20T20:11:03.165Z,63.55
2022-09-20T20:13:52.755Z,63.92
2022-09-20T20:16:27.045Z,64.47
2022-09-20T20:19:15.309Z,65.06
2022-09-20T20:22:12.382Z,64.49
2022-09-20T20:24:44.941Z,63.86
2022-09-20T20:27:11.389Z,64.83
2022-09-20T20:29:37.816Z,65.34
2022-09-20T20:32:04.795Z,64.97
2022-09-20T20:34:31.373Z,64.63
2022-09-20T20:37:01.075Z,66.18
2022-09-20T20:39:29.697Z,65.66
2022-09-20T20:42:01.935Z,66.43
2022-09-20T20:44:36.404Z,66.23
2022-09-20T20:47:04.825Z,66.27
2022-09-20T20:49:31.494Z,66.43
2022-09-20T20:51:59.609Z,66.33
2022-09-20T20:54:26.208Z,66.73
2022-09-20T20:56:52.670Z,66.75
2022-09-20T20:59:19.133Z,66.61
2022-09-20T21:01:45.911Z,66.28
2022-09-20T21:04:13.460Z,66.74
2022-09-20T21:06:41.477Z,66.60
2022-09-20T21:09:09.658Z,66.68
2022-09-20T21:11:39.163Z,67.62
2022-09-20T21:14:07.340Z,66.55
2022-09-20T21:16:36.152Z,67.35
2022-09-20T21:19:04.266Z,67.21
2022-09-20T21:21:33.581Z,66.94
2022-09-20T21:24:05.753Z,67.53
2022-09-20T21:26:33.797Z,67.62
2022-09-20T21:29:02.790Z,68.08
2022-09-20T21:31:35.017Z,67.97
2022-09-20T21:34:01.938Z,67.82
2022-09-20T21:36:29.787Z,67.57
2022-09-20T21:38:56.896Z,68.08
2022-09-20T21:41:29.308Z,67.53
2022-09-20T21:43:57.489Z,67.36
2022-09-20T21:46:28.342Z,68.39
2022-09-20T21:48:56.822Z,68.19
2022-09-20T21:51:25.154Z,67.95
2022-09-20T21:53:54.355Z,68.04
2022-09-20T21:56:20.849Z,68.00
2022-09-20T21:58:47.315Z,68.14
2022-09-20T22:01:17.129Z,68.10
2022-09-20T22:03:46.319Z,68.78
2022-09-20T22:06:21.251Z,68.10
2022-09-20T22:08:50.326Z,67.98
2022-09-20T22:11:18.286Z,69.04
2022-09-20T22:13:49.856Z,68.63
2022-09-20T22:16:19.173Z,68.80
2022-09-20T22:18:46.820Z,68.82
2022-09-20T22:21:16.452Z,67.96
2022-09-20T22:23:43.634Z,68.54
2022-09-20T22:26:15.629Z,68.71
2022-09-20T22:28:42.654Z,68.71
2022-09-20T22:31:16.326Z,68.39
2022-09-20T22:33:47.721Z,68.48
2022-09-20T22:36:17.705Z,68.95
2022-09-20T22:38:44.931Z,68.57
2022-09-20T22:41:13.911Z,69.01
2022-09-20T22:43:40.490Z,68.73
2022-09-20T22:46:28.871Z,69.23
2022-09-20T22:48:56.321Z,69.25
2022-09-20T22:51:25.808Z,69.11
2022-09-20T22:53:52.779Z,69.30
2022-09-20T22:56:28.830Z,69.19
2022-09-20T22:59:03.293Z,68.29
2022-09-20T23:01:31.999Z,68.58
2022-09-20T23:03:59.820Z,68.65
2022-09-20T23:06:27.833Z,68.33
2022-09-20T23:08:56.861Z,69.64
2022-09-20T23:11:24.096Z,69.56
2022-09-20T23:13:59.055Z,68.66
2022-09-20T23:16:30.496Z,68.54
2022-09-20T23:18:58.635Z,68.79
2022-09-20T23:21:25.952Z,69.16
2022-09-20T23:23:57.410Z,69.31
2022-09-20T23:26:25.423Z,69.25
2022-09-20T23:28:56.848Z,69.60
2022-09-20T23:31:24.251Z,69.13
2022-09-20T23:33:56.080Z,68.68
2022-09-20T23:36:24.175Z,69.67
2022-09-20T23:38:51.453Z,68.88
2022-09-20T23:41:21.484Z,68.88
2022-09-20T23:43:48.321Z,69.40
2022-09-20T23:46:17.184Z,68.79
2022-09-20T23:48:44.699Z,69.57
2022-09-20T23:51:13.627Z,69.10
2022-09-20T23:53:40.720Z,69.99
2022-09-20T23:56:08.080Z,69.78
2022-09-20T23:58:37.153Z,69.90
